Time;durP1;ratioP1;P1;durP2;ratioP2;P2;SDS_P1;SDS_P2;PMS_P1;PMS_P2;Temp;Humidity;BMP_temperature;BMP_pressure;BME280_temperature;BME280_humidity;BME280_pressure;Samples;Min_cycle;Max_cycle;Signal;HPM_P1;HPM_P2
2023/08/06 04:17:36;;;;;;;5.10;1.27;;;16.10;99.90;;;;;;4930373;29;20047;-63
2023/08/06 04:20:02;;;;;;;6.03;1.50;;;16.10;99.90;;;;;;4934895;29;20106;-62
2023/08/06 04:22:27;;;;;;;4.93;1.25;;;16.10;99.90;;;;;;4937707;29;20028;-63
2023/08/06 04:24:53;;;;;;;5.63;1.57;;;16.00;99.90;;;;;;4937249;29;20024;-61
2023/08/06 04:27:20;;;;;;;4.10;0.90;;;16.10;99.90;;;;;;4938297;29;20275;-63
2023/08/06 04:29:45;;;;;;;2.67;0.77;;;16.00;99.90;;;;;;4937554;29;20039;-62
2023/08/06 04:32:12;;;;;;;4.30;1.03;;;16.00;99.90;;;;;;4936933;29;20405;-63
2023/08/06 04:34:37;;;;;;;1.67;0.80;;;16.00;99.90;;;;;;4937867;29;20701;-63
2023/08/06 04:37:04;;;;;;;5.55;1.17;;;16.00;99.90;;;;;;4936665;29;20086;-63
2023/08/06 04:39:30;;;;;;;3.72;1.20;;;16.20;99.90;;;;;;4936518;29;20028;-63
2023/08/06 04:41:57;;;;;;;4.45;1.13;;;16.10;99.90;;;;;;4937646;29;20043;-62
2023/08/06 04:44:23;;;;;;;2.25;0.68;;;16.20;99.90;;;;;;4936549;29;20054;-63
2023/08/06 04:46:49;;;;;;;4.53;1.48;;;16.20;99.90;;;;;;4937795;29;20019;-62
2023/08/06 04:49:14;;;;;;;4.70;0.70;;;16.10;99.90;;;;;;4936011;29;20036;-62
2023/08/06 04:51:40;;;;;;;3.20;1.23;;;16.20;99.90;;;;;;4937981;29;20027;-62
2023/08/06 04:54:05;;;;;;;5.00;1.67;;;16.10;99.90;;;;;;4937747;29;20039;-62
2023/08/06 04:56:32;;;;;;;4.37;1.00;;;16.20;99.90;;;;;;4937211;29;20398;-63
2023/08/06 04:58:58;;;;;;;3.15;0.70;;;16.20;99.90;;;;;;4936949;29;20070;-63
2023/08/06 05:01:24;;;;;;;4.43;1.17;;;16.20;99.90;;;;;;4937857;29;20031;-63
2023/08/06 05:03:49;;;;;;;4.23;1.50;;;16.20;99.90;;;;;;4937101;29;20397;-63
2023/08/06 05:06:15;;;;;;;3.83;0.90;;;16.10;99.90;;;;;;4935941;29;20459;-63
2023/08/06 05:08:40;;;;;;;4.07;1.00;;;16.20;99.90;;;;;;4937075;29;20020;-63
2023/08/06 05:11:06;;;;;;;3.80;1.00;;;16.20;99.90;;;;;;4937330;29;20728;-63
2023/08/06 05:13:31;;;;;;;2.97;0.98;;;16.30;99.90;;;;;;4935804;29;20385;-62
2023/08/06 05:15:57;;;;;;;2.70;0.90;;;16.40;99.90;;;;;;4936109;29;20090;-63
2023/08/06 05:18:22;;;;;;;3.53;1.23;;;16.40;99.90;;;;;;4936668;29;20196;-62
2023/08/06 05:20:48;;;;;;;4.93;1.38;;;16.40;99.90;;;;;;4936730;29;20028;-63
2023/08/06 05:23:13;;;;;;;2.42;1.15;;;16.40;99.90;;;;;;4937096;29;20452;-63
2023/08/06 05:25:39;;;;;;;3.13;1.30;;;16.40;99.90;;;;;;4936761;29;20036;-63
2023/08/06 05:28:05;;;;;;;4.13;1.23;;;16.40;99.90;;;;;;4936970;29;20094;-62
2023/08/06 05:30:30;;;;;;;4.35;1.40;;;16.40;99.90;;;;;;4935667;29;20272;-63
2023/08/06 05:32:56;;;;;;;1.88;1.17;;;16.30;99.90;;;;;;4933126;29;20043;-63
2023/08/06 05:35:22;;;;;;;3.57;1.10;;;16.20;99.90;;;;;;4931115;29;20036;-63
2023/08/06 05:37:48;;;;;;;4.50;1.30;;;16.20;99.90;;;;;;4921029;29;20326;-63
2023/08/06 05:40:14;;;;;;;4.47;1.38;;;16.10;99.90;;;;;;4926550;29;20098;-63
2023/08/06 05:42:40;;;;;;;2.95;1.30;;;16.00;99.90;;;;;;4928803;29;20473;-62
2023/08/06 05:45:06;;;;;;;5.10;1.40;;;16.10;99.90;;;;;;4929767;29;20035;-62
2023/08/06 05:47:31;;;;;;;3.35;1.20;;;15.90;99.90;;;;;;4935129;29;20176;-63
2023/08/06 05:49:57;;;;;;;7.83;1.30;;;15.90;99.90;;;;;;4927767;29;20106;-62
2023/08/06 05:52:22;;;;;;;3.80;1.17;;;15.90;99.90;;;;;;4931302;29;20035;-61
2023/08/06 05:54:48;;;;;;;2.40;1.10;;;15.80;99.90;;;;;;4921017;29;20519;-62
2023/08/06 05:57:13;;;;;;;7.73;1.50;;;15.80;99.90;;;;;;4917958;29;20532;-62
2023/08/06 05:59:40;;;;;;;3.40;1.20;;;15.90;99.90;;;;;;4916260;29;20340;-62
2023/08/06 06:02:06;;;;;;;3.50;1.65;;;16.00;99.90;;;;;;4918435;29;20036;-61
2023/08/06 06:04:31;;;;;;;3.77;1.10;;;16.10;99.90;;;;;;4916237;29;20441;-64
2023/08/06 06:06:57;;;;;;;7.55;1.05;;;16.10;99.90;;;;;;4918087;29;20541;-63
2023/08/06 06:09:23;;;;;;;3.13;1.17;;;16.10;99.90;;;;;;4917958;29;20036;-61
2023/08/06 06:11:49;;;;;;;3.38;0.70;;;16.10;99.90;;;;;;4931208;29;20122;-61
2023/08/06 06:14:16;;;;;;;1.60;0.77;;;16.20;99.90;;;;;;4917239;29;20028;-62
2023/08/06 06:16:41;;;;;;;;;;;16.20;99.90;;;;;;4924886;29;20043;-63
2023/08/06 06:19:07;;;;;;;2.40;0.60;;;16.30;99.90;;;;;;4936162;29;19949;-63
2023/08/06 06:21:32;;;;;;;1.80;0.53;;;16.20;99.90;;;;;;4951717;29;20039;-62
2023/08/06 06:23:58;;;;;;;1.37;0.50;;;16.20;99.90;;;;;;4934949;29;20024;-62
2023/08/06 06:26:23;;;;;;;1.00;0.90;;;16.30;99.90;;;;;;4934895;29;20035;-63
2023/08/06 06:28:49;;;;;;;2.40;0.93;;;16.30;99.90;;;;;;4936245;29;20640;-62
2023/08/06 06:31:14;;;;;;;3.00;0.50;;;16.30;99.90;;;;;;4937282;29;20044;-63
2023/08/06 06:33:40;;;;;;;0.73;0.30;;;16.30;99.90;;;;;;4936147;29;20314;-62
2023/08/06 06:36:07;;;;;;;2.90;0.50;;;16.30;99.90;;;;;;4934570;29;20057;-62
2023/08/06 06:38:33;;;;;;;1.17;0.45;;;16.20;99.90;;;;;;4934962;29;20031;-63
2023/08/06 06:40:59;;;;;;;2.50;0.77;;;16.10;99.90;;;;;;4934959;29;20064;-62
2023/08/06 06:43:26;;;;;;;2.22;0.43;;;16.00;99.90;;;;;;4935886;29;20032;-62
2023/08/06 06:45:59;;;;;;;1.25;0.40;;;16.00;99.90;;;;;;4935996;29;20039;-64
2023/08/06 06:48:26;;;;;;;1.85;0.45;;;15.90;99.90;;;;;;4936051;29;20019;-63
2023/08/06 06:50:52;;;;;;;1.92;0.50;;;16.00;99.90;;;;;;4936102;29;20134;-62
2023/08/06 06:53:18;;;;;;;1.27;0.50;;;15.80;99.90;;;;;;4934827;29;20556;-63
2023/08/06 06:55:43;;;;;;;1.27;0.40;;;15.90;99.90;;;;;;4935315;29;20067;-62
2023/08/06 06:58:09;;;;;;;1.17;0.40;;;15.90;99.90;;;;;;4935142;29;20111;-61
2023/08/06 07:00:38;;;;;;;1.48;0.95;;;15.80;99.90;;;;;;4936100;29;20366;-61
2023/08/06 07:03:04;;;;;;;2.35;0.43;;;15.80;99.90;;;;;;4935194;29;20388;-61
2023/08/06 07:05:29;;;;;;;2.53;0.60;;;15.90;99.90;;;;;;4935872;29;20035;-62
2023/08/06 07:07:55;;;;;;;1.85;0.73;;;15.90;99.90;;;;;;4936652;29;20267;-63
2023/08/06 07:10:20;;;;;;;1.87;0.60;;;15.90;99.90;;;;;;4936925;29;20144;-63
2023/08/06 07:12:46;;;;;;;2.33;0.83;;;16.00;99.90;;;;;;4936260;29;20504;-62
2023/08/06 07:15:11;;;;;;;4.80;0.60;;;16.00;99.90;;;;;;4935786;29;20283;-63
2023/08/06 07:17:37;;;;;;;1.15;0.60;;;16.00;99.90;;;;;;4935901;29;20068;-63
2023/08/06 07:20:04;;;;;;;2.10;0.50;;;16.00;99.90;;;;;;4934865;29;20477;-63
2023/08/06 07:22:29;;;;;;;2.45;0.52;;;15.90;99.90;;;;;;4935757;29;20028;-63
2023/08/06 07:24:55;;;;;;;2.60;0.70;;;16.00;99.90;;;;;;4939520;29;20026;-63
2023/08/06 07:27:20;;;;;;;0.60;0.43;;;16.10;99.90;;;;;;4938988;29;20099;-63
2023/08/06 07:29:46;;;;;;;2.00;0.90;;;16.20;99.90;;;;;;4939022;29;20035;-63
2023/08/06 07:32:11;;;;;;;4.47;0.43;;;16.30;99.90;;;;;;4939301;29;20715;-63
2023/08/06 07:34:37;;;;;;;2.80;0.90;;;16.30;99.90;;;;;;4938688;29;20075;-64
2023/08/06 07:37:03;;;;;;;1.53;0.37;;;16.30;99.90;;;;;;4939209;29;20493;-63
2023/08/06 07:39:28;;;;;;;1.75;0.52;;;16.20;99.90;;;;;;4938913;29;20279;-61
2023/08/06 07:41:54;;;;;;;1.73;0.60;;;16.10;99.90;;;;;;4938701;29;20040;-63
2023/08/06 07:44:19;;;;;;;1.88;0.60;;;16.10;99.90;;;;;;4937652;29;20120;-63
2023/08/06 07:46:45;;;;;;;1.70;0.70;;;16.00;99.90;;;;;;4938683;29;20027;-63
2023/08/06 07:49:13;;;;;;;3.77;0.73;;;15.90;99.90;;;;;;4938011;29;20024;-62
2023/08/06 07:51:39;;;;;;;1.65;0.50;;;15.90;99.90;;;;;;4937780;29;20268;-63
2023/08/06 07:54:05;;;;;;;1.60;0.50;;;15.90;99.90;;;;;;4938976;29;20032;-62
2023/08/06 07:56:31;;;;;;;2.42;0.70;;;15.90;99.90;;;;;;4937395;29;20279;-62
2023/08/06 07:58:56;;;;;;;1.40;0.40;;;15.80;99.90;;;;;;4937789;29;20036;-62
2023/08/06 08:01:22;;;;;;;5.73;1.00;;;15.90;99.90;;;;;;4937761;29;20095;-64
2023/08/06 08:03:47;;;;;;;3.10;0.70;;;15.90;99.90;;;;;;4937003;29;20031;-60
2023/08/06 08:06:13;;;;;;;0.53;0.47;;;15.90;99.90;;;;;;4938078;29;20417;-63
2023/08/06 08:08:38;;;;;;;2.80;1.00;;;15.80;99.90;;;;;;4937742;29;20267;-62
2023/08/06 08:11:05;;;;;;;6.00;1.00;;;15.70;99.90;;;;;;4938354;29;20263;-61
2023/08/06 08:13:30;;;;;;;;;;;15.70;99.90;;;;;;4938951;29;20032;-60
2023/08/06 08:15:59;;;;;;;2.53;1.10;;;15.60;99.90;;;;;;4938135;29;19914;-60
2023/08/06 08:18:25;;;;;;;1.58;0.43;;;15.50;99.90;;;;;;4939126;29;20449;-60
2023/08/06 08:20:51;;;;;;;2.38;0.63;;;15.30;99.90;;;;;;4938220;29;20059;-60
2023/08/06 08:23:17;;;;;;;1.33;0.40;;;15.40;99.90;;;;;;4938570;29;20062;-58
2023/08/06 08:25:42;;;;;;;1.53;0.50;;;15.40;99.90;;;;;;4938356;29;20469;-60
2023/08/06 08:28:08;;;;;;;1.83;0.55;;;15.50;99.90;;;;;;4938433;29;20028;-62
2023/08/06 08:30:33;;;;;;;1.73;1.00;;;15.50;99.90;;;;;;4938241;29;20032;-62
2023/08/06 08:32:59;;;;;;;1.83;0.80;;;15.60;99.90;;;;;;4938082;29;20090;-61
2023/08/06 08:35:24;;;;;;;4.03;0.77;;;15.70;99.90;;;;;;4936647;29;20270;-62
2023/08/06 08:37:51;;;;;;;3.53;0.60;;;15.70;99.90;;;;;;4938119;29;20032;-62
2023/08/06 08:40:17;;;;;;;;;;;15.70;99.90;;;;;;4937035;29;20027;-63
2023/08/06 08:42:43;;;;;;;3.53;0.70;;;15.60;99.90;;;;;;4937949;29;20387;-62
2023/08/06 08:45:13;;;;;;;;;;;15.60;99.90;;;;;;4936820;29;20122;-63
2023/08/06 08:47:43;;;;;;;2.08;0.68;;;15.70;99.90;;;;;;4937477;29;20013;-63
2023/08/06 08:50:11;;;;;;;2.00;0.60;;;15.70;99.90;;;;;;4937451;29;20035;-63
2023/08/06 08:52:38;;;;;;;4.05;0.70;;;15.80;99.90;;;;;;4937340;29;20028;-63
2023/08/06 08:55:07;;;;;;;2.55;0.50;;;15.80;99.90;;;;;;4937368;29;20031;-65
2023/08/06 08:57:33;;;;;;;3.45;0.70;;;15.90;99.90;;;;;;4937061;29;20111;-62
2023/08/06 08:59:58;;;;;;;2.80;0.90;;;16.00;99.90;;;;;;4937416;29;20082;-63
2023/08/06 09:02:27;;;;;;;2.85;0.70;;;16.00;99.90;;;;;;4929591;29;20043;-63
2023/08/06 09:04:54;;;;;;;1.63;0.60;;;16.10;99.90;;;;;;4936051;29;20024;-64
2023/08/06 09:07:21;;;;;;;2.20;0.60;;;16.10;99.90;;;;;;4918349;29;20028;-63
2023/08/06 09:09:49;;;;;;;1.35;0.50;;;16.10;99.90;;;;;;4918494;29;20024;-63
2023/08/06 09:12:16;;;;;;;5.68;0.70;;;16.10;99.90;;;;;;4918155;29;20032;-64
2023/08/06 09:14:42;;;;;;;2.70;0.82;;;16.10;99.90;;;;;;4932248;29;20115;-63
2023/08/06 09:17:10;;;;;;;1.63;0.50;;;16.10;99.90;;;;;;4936084;29;20440;-63
2023/08/06 09:19:36;;;;;;;3.60;0.75;;;16.30;99.90;;;;;;4932340;29;20040;-64
2023/08/06 09:22:02;;;;;;;2.05;0.68;;;16.40;99.90;;;;;;4929247;29;20485;-63
2023/08/06 09:24:27;;;;;;;1.83;0.60;;;16.50;99.90;;;;;;4928462;29;20103;-63
2023/08/06 09:26:54;;;;;;;1.65;0.55;;;16.70;99.90;;;;;;4931165;29;20039;-65
2023/08/06 09:29:19;;;;;;;;;;;16.90;99.90;;;;;;4930664;29;20021;-63
2023/08/06 09:31:53;;;;;;;3.22;0.80;;;17.00;99.90;;;;;;4923817;29;19969;-63
2023/08/06 09:34:22;;;;;;;1.20;0.50;;;17.00;99.90;;;;;;4931387;29;20039;-65
2023/08/06 09:36:56;;;;;;;1.05;0.50;;;16.90;99.90;;;;;;4929253;29;20035;-64
2023/08/06 09:39:30;;;;;;;0.35;0.30;;;16.90;99.90;;;;;;4929681;29;20035;-64
2023/08/06 09:41:57;;;;;;;1.40;0.55;;;16.90;99.90;;;;;;4936915;29;20023;-63
2023/08/06 09:44:24;;;;;;;1.13;0.73;;;16.70;99.90;;;;;;4935814;29;20031;-64
2023/08/06 09:46:52;;;;;;;1.52;0.75;;;16.70;99.90;;;;;;4937551;29;20060;-64
2023/08/06 09:49:25;;;;;;;1.88;0.50;;;16.70;99.90;;;;;;4937299;29;20038;-63
2023/08/06 09:51:53;;;;;;;0.45;0.40;;;16.80;99.90;;;;;;4936306;29;20102;-64
2023/08/06 09:54:19;;;;;;;1.27;0.60;;;16.70;99.90;;;;;;4937809;29;20103;-62
2023/08/06 09:56:45;;;;;;;0.50;0.50;;;16.80;99.90;;;;;;4937641;29;20051;-63
2023/08/06 09:59:13;;;;;;;1.27;0.55;;;16.80;99.90;;;;;;4936111;29;20091;-64
2023/08/06 10:01:39;;;;;;;1.08;0.40;;;16.80;99.90;;;;;;4937037;29;20041;-61
2023/08/06 10:04:08;;;;;;;1.03;0.70;;;16.70;99.90;;;;;;4936957;29;20028;-62
2023/08/06 10:06:37;;;;;;;0.57;0.43;;;16.80;99.90;;;;;;4935256;29;20271;-64
2023/08/06 10:09:04;;;;;;;1.38;0.98;;;16.70;99.90;;;;;;4935334;29;20052;-64
2023/08/06 10:11:31;;;;;;;0.68;0.50;;;16.60;99.90;;;;;;4936767;29;20107;-63
2023/08/06 10:14:13;;;;;;;1.08;0.52;;;16.50;99.90;;;;;;4934671;29;20086;-63
2023/08/06 10:16:40;;;;;;;0.82;0.40;;;16.50;99.90;;;;;;4935851;29;20032;-63
2023/08/06 10:19:09;;;;;;;1.27;0.73;;;16.40;99.90;;;;;;4935880;29;20046;-62
2023/08/06 10:21:35;;;;;;;2.50;0.65;;;16.20;99.90;;;;;;4932438;29;20032;-62
2023/08/06 10:24:02;;;;;;;1.30;0.68;;;16.30;99.90;;;;;;4931362;29;20040;-63
2023/08/06 10:26:28;;;;;;;0.98;0.65;;;16.20;99.90;;;;;;4925113;29;20024;-62
2023/08/06 10:28:54;;;;;;;1.45;0.60;;;16.00;99.90;;;;;;4920096;29;20026;-62
2023/08/06 10:31:20;;;;;;;1.30;0.80;;;16.00;99.90;;;;;;4934922;29;20027;-64
2023/08/06 10:33:47;;;;;;;1.50;0.98;;;15.90;99.90;;;;;;4934555;29;20028;-64
2023/08/06 10:36:14;;;;;;;1.90;1.00;;;15.80;99.90;;;;;;4935323;29;20035;-65
2023/08/06 10:38:50;;;;;;;3.83;1.13;;;15.90;99.90;;;;;;4935706;29;20059;-64
2023/08/06 10:41:17;;;;;;;3.70;1.27;;;15.90;99.90;;;;;;4936053;29;20035;-65
2023/08/06 10:43:44;;;;;;;2.90;1.27;;;16.00;99.90;;;;;;4936039;29;20024;-65
2023/08/06 10:46:20;;;;;;;1.42;0.85;;;16.00;99.90;;;;;;4935570;29;20020;-65
2023/08/06 10:48:46;;;;;;;3.17;1.30;;;16.00;99.90;;;;;;4935881;29;20470;-66
2023/08/06 10:51:13;;;;;;;1.02;0.77;;;16.10;99.90;;;;;;4935582;29;20096;-66
2023/08/06 10:53:42;;;;;;;3.10;1.10;;;16.10;99.90;;;;;;4935581;29;20397;-66
2023/08/06 10:56:14;;;;;;;2.25;1.23;;;16.00;99.90;;;;;;4935526;29;20032;-66
2023/08/06 10:58:40;;;;;;;2.47;1.40;;;15.90;99.90;;;;;;4938814;29;20028;-65
2023/08/06 11:01:06;;;;;;;3.33;1.30;;;16.00;99.90;;;;;;4939409;29;20028;-65
2023/08/06 11:03:33;;;;;;;2.73;1.50;;;15.90;99.90;;;;;;4937881;29;20078;-65
2023/08/06 11:05:58;;;;;;;4.25;1.63;;;15.90;99.90;;;;;;4937774;29;20295;-65
2023/08/06 11:08:28;;;;;;;3.10;1.38;;;15.90;99.90;;;;;;4939451;29;20458;-66
2023/08/06 11:10:54;;;;;;;3.30;1.55;;;15.80;99.90;;;;;;4940083;29;20036;-66
2023/08/06 11:13:20;;;;;;;3.10;1.67;;;15.80;99.90;;;;;;4939668;29;20088;-66
2023/08/06 11:15:46;;;;;;;;;;;15.90;99.90;;;;;;4939133;29;20450;-65
2023/08/06 11:18:11;;;;;;;3.58;1.98;;;15.90;99.90;;;;;;4939372;29;19962;-64
2023/08/06 11:20:38;;;;;;;6.90;2.20;;;15.90;99.90;;;;;;4938548;29;20032;-64
2023/08/06 11:23:04;;;;;;;5.95;2.10;;;15.90;99.90;;;;;;4939277;29;20287;-66
2023/08/06 11:25:30;;;;;;;4.75;2.10;;;16.00;99.90;;;;;;4938822;29;20385;-66
2023/08/06 11:27:55;;;;;;;4.32;1.60;;;16.00;99.90;;;;;;4939186;29;20032;-65
2023/08/06 11:30:21;;;;;;;3.47;1.87;;;16.10;99.90;;;;;;4939147;29;20028;-65
2023/08/06 11:32:47;;;;;;;6.80;2.47;;;16.20;99.90;;;;;;4937552;29;20282;-65
2023/08/06 11:35:13;;;;;;;;;;;16.30;99.90;;;;;;4939190;29;20264;-65
2023/08/06 11:37:43;;;;;;;2.92;1.65;;;16.30;99.90;;;;;;4934445;29;20316;-66
2023/08/06 11:40:10;;;;;;;1.88;1.50;;;16.40;99.90;;;;;;4935914;29;20023;-66
2023/08/06 11:42:36;;;;;;;3.15;1.92;;;16.50;99.90;;;;;;4937280;29;20024;-66
2023/08/06 11:45:03;;;;;;;3.78;1.75;;;16.50;99.90;;;;;;4939136;29;20035;-66
2023/08/06 11:47:28;;;;;;;3.47;1.60;;;16.50;99.90;;;;;;4938644;29;20441;-66
2023/08/06 11:49:54;;;;;;;5.30;1.93;;;16.50;99.90;;;;;;4938154;29;20032;-67
2023/08/06 11:52:20;;;;;;;5.80;2.58;;;16.50;99.90;;;;;;4938739;29;20091;-67
2023/08/06 11:54:48;;;;;;;3.70;2.00;;;16.70;99.90;;;;;;4938417;29;20039;-67
2023/08/06 11:57:14;;;;;;;5.28;1.77;;;16.70;99.90;;;;;;4938487;29;20029;-67
2023/08/06 11:59:40;;;;;;;4.32;1.75;;;16.70;99.90;;;;;;4933286;29;20123;-66
2023/08/06 12:02:10;;;;;;;7.03;2.20;;;16.80;99.90;;;;;;4921771;29;20107;-66
2023/08/06 12:05:18;;;;;;;5.95;2.05;;;16.90;99.90;;;;;;4934272;29;20118;-66
2023/08/06 12:07:48;;;;;;;4.30;2.13;;;17.00;99.90;;;;;;4934877;29;20036;-67
2023/08/06 12:10:15;;;;;;;3.28;2.08;;;17.00;99.90;;;;;;4938641;29;20429;-66
2023/08/06 12:12:41;;;;;;;2.55;1.67;;;17.00;99.90;;;;;;4938707;29;20027;-66
2023/08/06 12:15:09;;;;;;;6.78;1.80;;;16.90;99.90;;;;;;4938539;29;20038;-66
2023/08/06 12:17:35;;;;;;;6.13;2.00;;;16.80;99.90;;;;;;4938212;29;20036;-65
2023/08/06 12:20:01;;;;;;;3.55;1.75;;;16.90;99.90;;;;;;4937705;29;20032;-65
2023/08/06 12:22:27;;;;;;;3.50;1.58;;;16.80;99.90;;;;;;4938964;29;20066;-66
2023/08/06 12:24:52;;;;;;;3.17;1.50;;;17.00;99.90;;;;;;4938644;29;20032;-66
2023/08/06 12:27:18;;;;;;;3.22;1.67;;;17.10;99.90;;;;;;4937982;29;20027;-66
2023/08/06 12:29:45;;;;;;;3.80;1.30;;;17.10;99.90;;;;;;4937847;29;20035;-66
2023/08/06 12:32:12;;;;;;;5.05;1.80;;;17.10;99.90;;;;;;4938231;29;20047;-66
2023/08/06 12:34:39;;;;;;;2.70;1.30;;;17.10;99.90;;;;;;4938458;29;20031;-66
2023/08/06 12:37:04;;;;;;;2.70;1.40;;;17.30;99.90;;;;;;4937580;29;20102;-66
2023/08/06 12:39:32;;;;;;;6.70;2.00;;;17.30;99.90;;;;;;4937896;29;20074;-66
2023/08/06 12:41:58;;;;;;;2.38;1.55;;;17.40;99.90;;;;;;4936447;29;20400;-65
2023/08/06 12:44:24;;;;;;;3.15;1.30;;;17.40;99.90;;;;;;4938414;29;20015;-65
2023/08/06 12:46:51;;;;;;;3.53;1.27;;;17.40;99.90;;;;;;4938234;29;20544;-66
2023/08/06 12:49:17;;;;;;;2.97;1.38;;;17.40;99.90;;;;;;4937723;29;20413;-65
2023/08/06 12:51:42;;;;;;;3.17;1.58;;;17.40;99.90;;;;;;4934772;29;20035;-65
2023/08/06 12:54:08;;;;;;;1.77;0.98;;;17.20;99.90;;;;;;4937258;29;20036;-63
2023/08/06 12:56:34;;;;;;;1.88;1.23;;;17.20;99.90;;;;;;4935763;29;20028;-66
2023/08/06 12:59:00;;;;;;;4.38;1.23;;;17.40;99.90;;;;;;4937302;29;20485;-65
2023/08/06 13:01:25;;;;;;;2.83;1.20;;;17.60;99.90;;;;;;4929632;29;20068;-65
2023/08/06 13:03:51;;;;;;;2.45;1.00;;;17.80;99.90;;;;;;4933532;29;20055;-66
2023/08/06 13:06:17;;;;;;;3.15;0.90;;;18.00;99.90;;;;;;4937307;29;20071;-66
2023/08/06 13:08:42;;;;;;;1.45;0.70;;;18.00;99.90;;;;;;4950770;29;20027;-65
2023/08/06 13:11:08;;;;;;;1.17;0.77;;;18.10;99.90;;;;;;4936195;29;20080;-65
2023/08/06 13:13:33;;;;;;;1.98;1.15;;;18.20;99.90;;;;;;4937139;29;20271;-65
2023/08/06 13:15:59;;;;;;;3.37;0.93;;;18.10;99.90;;;;;;4936901;29;20095;-66
2023/08/06 13:18:25;;;;;;;4.55;0.70;;;18.10;99.90;;;;;;4937210;29;20433;-65
2023/08/06 13:20:54;;;;;;;3.15;0.70;;;18.10;99.90;;;;;;4936424;29;20568;-65
2023/08/06 13:23:20;;;;;;;1.35;0.80;;;18.00;99.90;;;;;;4934569;29;20513;-65
2023/08/06 13:25:45;;;;;;;1.80;0.80;;;18.10;99.90;;;;;;4931080;29;20370;-64
2023/08/06 13:28:11;;;;;;;0.85;0.60;;;18.10;99.90;;;;;;4924748;29;20047;-65
2023/08/06 13:30:41;;;;;;;1.45;0.80;;;18.10;99.90;;;;;;4922572;29;20390;-64
2023/08/06 13:33:11;;;;;;;2.28;0.90;;;18.30;99.90;;;;;;4926430;29;20039;-63
2023/08/06 13:35:37;;;;;;;1.73;0.60;;;18.30;99.90;;;;;;4925975;29;20024;-64
2023/08/06 13:38:03;;;;;;;1.50;0.70;;;18.40;99.90;;;;;;4926122;29;20035;-65
2023/08/06 13:40:33;;;;;;;1.20;0.60;;;18.40;99.90;;;;;;4932489;29;20035;-63
2023/08/06 13:42:59;;;;;;;0.85;0.50;;;18.60;99.90;;;;;;4925820;29;20102;-62
2023/08/06 13:45:24;;;;;;;1.17;0.95;;;18.70;99.90;;;;;;4925048;29;20552;-62
2023/08/06 13:47:50;;;;;;;0.93;0.60;;;18.90;99.90;;;;;;4917677;29;20059;-61
2023/08/06 13:50:15;;;;;;;2.95;0.63;;;18.70;99.90;;;;;;4918051;29;20028;-62
2023/08/06 13:52:41;;;;;;;1.67;0.60;;;18.60;99.90;;;;;;4917788;29;20032;-64
2023/08/06 13:55:07;;;;;;;1.52;0.50;;;18.50;99.90;;;;;;4917373;29;20060;-66
2023/08/06 13:57:34;;;;;;;1.83;0.60;;;18.40;99.90;;;;;;4916079;29;20024;-64
2023/08/06 14:00:00;;;;;;;1.52;0.60;;;18.40;99.90;;;;;;4917146;29;20020;-64
2023/08/06 14:02:25;;;;;;;1.85;0.75;;;18.50;99.90;;;;;;4917272;29;20035;-64
2023/08/06 14:04:53;;;;;;;1.83;0.85;;;18.60;99.90;;;;;;4917066;29;20032;-64
2023/08/06 14:07:18;;;;;;;2.72;0.90;;;18.70;99.90;;;;;;4917182;29;20489;-64
2023/08/06 14:09:44;;;;;;;1.00;0.60;;;18.80;99.90;;;;;;4917219;29;20036;-64
2023/08/06 14:12:09;;;;;;;0.88;0.57;;;19.00;99.90;;;;;;4931953;29;20288;-66
2023/08/06 14:14:36;;;;;;;0.73;0.60;;;19.10;99.90;;;;;;4933602;29;20107;-65
2023/08/06 14:17:02;;;;;;;4.03;0.60;;;19.20;99.90;;;;;;4936176;29;20040;-66
2023/08/06 14:19:33;;;;;;;1.70;0.60;;;19.20;99.90;;;;;;4936396;29;20079;-65
2023/08/06 14:21:59;;;;;;;2.13;0.63;;;19.20;99.90;;;;;;4936215;29;20196;-64
2023/08/06 14:24:30;;;;;;;1.33;0.40;;;19.20;99.90;;;;;;4935159;29;20108;-65
2023/08/06 14:26:56;;;;;;;0.90;0.70;;;19.10;99.90;;;;;;4934127;29;20032;-64
2023/08/06 14:29:22;;;;;;;1.65;0.70;;;19.20;99.90;;;;;;4934422;29;20035;-64
2023/08/06 14:31:48;;;;;;;2.42;0.70;;;19.20;99.90;;;;;;4934540;29;20031;-64
2023/08/06 14:34:14;;;;;;;2.83;0.75;;;19.10;99.90;;;;;;4938372;29;20099;-64
2023/08/06 14:36:42;;;;;;;0.70;0.50;;;19.10;99.90;;;;;;4938347;29;20046;-64
2023/08/06 14:39:14;;;;;;;1.88;0.68;;;18.90;99.90;;;;;;4938250;29;20032;-65
2023/08/06 14:41:39;;;;;;;2.35;0.70;;;18.90;99.90;;;;;;4939329;29;20114;-65
2023/08/06 14:44:08;;;;;;;1.48;1.10;;;18.80;99.90;;;;;;4939867;29;20120;-64
2023/08/06 14:46:34;;;;;;;2.38;0.88;;;18.80;99.90;;;;;;4938387;29;20059;-64
2023/08/06 14:49:00;;;;;;;1.60;0.90;;;19.00;99.90;;;;;;4939753;29;20051;-65
2023/08/06 14:51:26;;;;;;;3.53;0.80;;;19.00;99.90;;;;;;4938254;29;20036;-65
2023/08/06 14:53:54;;;;;;;4.10;0.95;;;19.00;99.90;;;;;;4939594;29;20155;-65
2023/08/06 14:56:23;;;;;;;1.25;0.80;;;18.90;99.90;;;;;;4938195;29;20561;-65
2023/08/06 14:58:51;;;;;;;1.42;0.70;;;18.80;99.90;;;;;;4939297;29;20063;-65
2023/08/06 15:01:20;;;;;;;1.75;0.80;;;18.80;99.90;;;;;;4939157;29;20028;-66
2023/08/06 15:03:53;;;;;;;1.77;0.73;;;19.00;99.90;;;;;;4939337;29;20024;-66
2023/08/06 15:06:22;;;;;;;2.15;0.88;;;19.10;99.90;;;;;;4937994;29;20031;-66
2023/08/06 15:08:50;;;;;;;1.60;0.85;;;19.10;99.90;;;;;;4939264;29;20024;-66
2023/08/06 15:11:19;;;;;;;2.50;0.90;;;19.20;99.90;;;;;;4939727;29;20032;-64
2023/08/06 15:13:45;;;;;;;1.77;0.82;;;19.10;99.90;;;;;;4939201;29;20038;-65
2023/08/06 15:16:11;;;;;;;2.67;0.80;;;19.10;99.90;;;;;;4938988;29;20044;-65
2023/08/06 15:18:39;;;;;;;1.25;0.60;;;18.90;99.90;;;;;;4939536;29;20062;-65
2023/08/06 15:21:05;;;;;;;3.35;0.75;;;18.80;99.90;;;;;;4939436;29;20511;-64
2023/08/06 15:23:31;;;;;;;1.10;0.70;;;18.70;99.90;;;;;;4939973;29;20035;-65
2023/08/06 15:25:59;;;;;;;3.55;0.98;;;18.70;99.90;;;;;;4939470;29;20055;-65
2023/08/06 15:28:25;;;;;;;2.33;0.80;;;18.70;99.90;;;;;;4939001;29;20020;-65
2023/08/06 15:30:54;;;;;;;;;;;18.70;99.90;;;;;;4940482;29;20111;-65
2023/08/06 15:33:20;;;;;;;4.78;1.00;;;18.60;99.90;;;;;;4939570;29;19914;-65
2023/08/06 15:35:48;;;;;;;2.35;0.82;;;18.50;99.90;;;;;;4939111;29;20028;-64
2023/08/06 15:38:14;;;;;;;2.72;1.05;;;18.30;99.90;;;;;;4938956;29;20087;-65
2023/08/06 15:40:46;;;;;;;10.38;1.15;;;18.30;99.90;;;;;;4938449;29;20055;-65
2023/08/06 15:43:12;;;;;;;1.90;1.00;;;18.30;99.90;;;;;;4938412;29;20032;-64
2023/08/06 15:45:41;;;;;;;2.13;0.80;;;18.20;99.90;;;;;;4937047;29;20023;-65
2023/08/06 15:48:09;;;;;;;6.38;0.90;;;18.10;99.90;;;;;;4937184;29;20401;-65
2023/08/06 15:50:39;;;;;;;1.70;0.70;;;18.10;99.90;;;;;;4938393;29;20044;-65
2023/08/06 15:53:05;;;;;;;2.00;1.15;;;18.00;99.90;;;;;;4938729;29;20028;-65
2023/08/06 15:55:37;;;;;;;6.93;2.30;;;18.00;99.90;;;;;;4937268;29;20019;-65
2023/08/06 15:58:05;;;;;;;5.10;1.30;;;17.70;99.90;;;;;;4954475;29;20028;-65
2023/08/06 16:00:31;;;;;;;4.00;1.75;;;17.20;99.90;;;;;;4938673;29;20020;-65
2023/08/06 16:02:57;;;;;;;3.35;0.95;;;16.90;99.90;;;;;;4938373;29;20028;-66
2023/08/06 16:05:23;;;;;;;2.42;1.00;;;16.60;99.90;;;;;;4938152;29;20027;-65
2023/08/06 16:07:54;;;;;;;3.92;1.05;;;16.40;99.90;;;;;;4938426;29;20051;-65
2023/08/06 16:10:20;;;;;;;2.20;1.25;;;16.30;99.90;;;;;;4938188;29;20031;-65
2023/08/06 16:12:46;;;;;;;2.65;1.33;;;16.40;99.90;;;;;;4938234;29;20024;-65
2023/08/06 16:15:15;;;;;;;2.85;1.25;;;16.40;99.90;;;;;;4936683;29;20408;-65
2023/08/06 16:17:41;;;;;;;3.15;1.30;;;16.50;99.90;;;;;;4937953;29;20061;-66
2023/08/06 16:20:08;;;;;;;3.22;1.20;;;16.50;99.90;;;;;;4938056;29;20024;-65
2023/08/06 16:22:33;;;;;;;2.67;1.15;;;16.60;99.90;;;;;;4935112;29;20032;-64
2023/08/06 16:24:59;;;;;;;3.35;1.17;;;16.50;99.90;;;;;;4937768;29;20036;-66
2023/08/06 16:27:25;;;;;;;4.68;1.30;;;16.50;99.90;;;;;;4937080;29;20024;-65
2023/08/06 16:29:51;;;;;;;2.60;1.27;;;16.50;99.90;;;;;;4935007;29;20028;-66
2023/08/06 16:32:16;;;;;;;2.40;1.23;;;16.40;99.90;;;;;;4919552;29;20036;-67
2023/08/06 16:34:42;;;;;;;1.90;1.05;;;16.30;99.90;;;;;;4919031;29;20307;-67
2023/08/06 16:37:07;;;;;;;1.77;1.13;;;16.40;99.90;;;;;;4946441;29;20191;-68
2023/08/06 16:39:33;;;;;;;2.85;1.63;;;16.40;99.90;;;;;;4937817;29;20023;-64
2023/08/06 16:41:58;;;;;;;2.42;1.10;;;16.50;99.90;;;;;;4937956;29;20036;-65
2023/08/06 16:44:25;;;;;;;4.00;1.30;;;16.70;99.90;;;;;;4936439;29;20031;-62
2023/08/06 16:46:50;;;;;;;3.05;1.30;;;16.80;99.90;;;;;;4938058;29;20589;-66
2023/08/06 16:49:16;;;;;;;2.37;1.20;;;17.10;99.90;;;;;;4937677;29;20028;-64
2023/08/06 16:51:41;;;;;;;2.70;1.30;;;17.30;99.90;;;;;;4937864;29;20032;-65
2023/08/06 16:54:07;;;;;;;2.73;1.20;;;17.40;99.90;;;;;;4937443;29;20266;-65
2023/08/06 16:56:32;;;;;;;2.80;1.43;;;17.50;99.90;;;;;;4938072;29;20044;-65
2023/08/06 16:59:00;;;;;;;3.33;1.30;;;17.60;99.90;;;;;;4938008;29;20267;-64
2023/08/06 17:01:25;;;;;;;3.72;1.20;;;17.70;99.90;;;;;;4936560;29;20700;-64